Time;durP1;ratioP1;P1;durP2;ratioP2;P2;SDS_P1;SDS_P2;PMS_P1;PMS_P2;Temp;Humidity;BMP_temperature;BMP_pressure;BME280_temperature;BME280_humidity;BME280_pressure;Samples;Min_cycle;Max_cycle;Signal;HPM_P1;HPM_P2
2022/09/09 00:01:09;;;;;;;5.95;5.45;;;;;;;14.48;100.00;100153.75;5042713;28;20036;-76
2022/09/09 00:03:45;;;;;;;6.30;5.70;;;;;;;14.46;100.00;100154.69;5056116;28;20052;-76
2022/09/09 00:06:22;;;;;;;5.78;5.28;;;;;;;14.43;100.00;100155.66;5036798;28;20041;-76
2022/09/09 00:09:00;;;;;;;7.45;5.88;;;;;;;14.42;100.00;100158.38;5042761;28;20148;-76
2022/09/09 00:11:40;;;;;;;6.20;5.70;;;;;;;14.36;100.00;100162.06;5039039;28;20048;-76
2022/09/09 00:14:17;;;;;;;6.85;6.32;;;;;;;14.37;100.00;100163.81;5041834;28;20037;-76
2022/09/09 00:16:49;;;;;;;6.53;5.93;;;;;;;14.33;100.00;100159.50;5054226;28;20405;-76
2022/09/09 00:19:24;;;;;;;6.13;5.63;;;;;;;14.35;100.00;100156.78;5041670;28;20056;-76
2022/09/09 00:22:18;;;;;;;13.27;6.28;;;;;;;14.29;100.00;100157.84;5042434;28;20037;-75
2022/09/09 00:24:56;;;;;;;7.57;5.53;;;;;;;14.25;100.00;100153.50;5041306;28;20159;-76
2022/09/09 00:27:40;;;;;;;6.07;5.57;;;;;;;14.22;100.00;100153.59;5041224;28;20069;-76
2022/09/09 00:30:22;;;;;;;6.32;5.70;;;;;;;14.17;100.00;100156.41;5040012;28;20408;-75
2022/09/09 00:32:59;;;;;;;5.75;5.20;;;;;;;14.15;100.00;100152.03;5042073;28;20037;-76
2022/09/09 00:35:29;;;;;;;6.03;5.43;;;;;;;14.08;100.00;100156.63;5022017;28;20099;-76
2022/09/09 00:38:00;;;;;;;5.30;4.90;;;;;;;14.05;100.00;100158.50;5041080;28;20029;-76
2022/09/09 00:40:35;;;;;;;6.25;5.65;;;;;;;13.99;100.00;100159.50;5040994;28;20120;-76
2022/09/09 00:43:18;;;;;;;5.97;5.38;;;;;;;13.93;100.00;100163.19;5042366;28;20037;-76
2022/09/09 00:45:56;;;;;;;5.93;5.43;;;;;;;13.95;100.00;100161.38;5020450;28;20056;-76
2022/09/09 00:48:32;;;;;;;7.50;5.07;;;;;;;13.96;100.00;100168.44;5042363;28;20115;-75
2022/09/09 00:51:10;;;;;;;5.88;5.38;;;;;;;13.92;100.00;100161.47;5037490;28;20033;-76
2022/09/09 00:53:54;;;;;;;6.40;5.80;;;;;;;13.95;100.00;100156.06;5043345;28;20043;-75
2022/09/09 00:56:30;;;;;;;6.00;5.32;;;;;;;13.97;100.00;100158.72;5022125;28;20048;-76
2022/09/09 00:59:31;;;;;;;6.00;5.40;;;;;;;13.99;100.00;100154.19;5038180;28;20041;-75
2022/09/09 01:01:58;;;;;;;5.45;5.05;;;;;;;13.98;100.00;100156.00;5041146;28;20587;-75
2022/09/09 01:04:36;;;;;;;7.32;5.38;;;;;;;13.98;100.00;100160.44;5041082;28;20029;-76
2022/09/09 01:07:15;;;;;;;6.25;5.75;;;;;;;13.90;100.00;100160.63;5039787;28;20084;-76
2022/09/09 01:09:55;;;;;;;6.07;5.32;;;;;;;13.89;100.00;100156.25;5036941;28;20041;-75
2022/09/09 01:12:26;;;;;;;6.25;5.65;;;;;;;13.87;100.00;100158.06;5039723;28;20036;-76
2022/09/09 01:15:04;;;;;;;5.85;5.28;;;;;;;13.89;100.00;100160.69;5050733;28;20058;-75
2022/09/09 01:17:38;;;;;;;6.50;5.90;;;;;;;13.90;100.00;100157.97;5035216;28;20440;-76
2022/09/09 01:20:30;;;;;;;7.65;6.93;;;;;;;13.87;100.00;100163.38;5027341;28;20057;-76
2022/09/09 01:23:11;;;;;;;6.55;5.95;;;;;;;13.91;100.00;100162.41;5020289;28;20037;-76
2022/09/09 01:26:10;;;;;;;6.07;5.57;;;;;;;13.91;100.00;100164.16;5036907;28;20018;-76
2022/09/09 01:28:36;;;;;;;7.05;6.10;;;;;;;13.88;100.00;100159.78;5040138;28;20041;-75
2022/09/09 01:31:11;;;;;;;6.75;6.18;;;;;;;13.88;100.00;100167.75;5041087;28;20036;-76
2022/09/09 01:33:43;;;;;;;6.43;5.82;;;;;;;13.87;100.00;100163.38;5036086;28;20041;-76
2022/09/09 01:36:19;;;;;;;6.55;5.88;;;;;;;13.93;100.00;100171.16;5042259;28;20043;-75
2022/09/09 01:38:48;;;;;;;5.78;5.28;;;;;;;13.95;100.00;100166.69;5042208;28;20032;-76
2022/09/09 01:41:14;;;;;;;5.78;5.20;;;;;;;13.96;100.00;100157.84;5039034;28;20029;-76
2022/09/09 01:43:58;;;;;;;7.53;5.47;;;;;;;13.96;100.00;100167.56;5038804;28;20120;-76
2022/09/09 01:46:24;;;;;;;5.90;5.28;;;;;;;14.02;100.00;100162.97;5031743;28;20047;-76
2022/09/09 01:48:52;;;;;;;6.65;6.05;;;;;;;14.05;100.00;100155.84;5032740;28;20038;-75
2022/09/09 01:51:17;;;;;;;7.28;6.68;;;;;;;14.07;100.00;100156.66;5038029;28;20029;-76
2022/09/09 01:53:44;;;;;;;6.18;5.68;;;;;;;14.03;100.00;100158.53;5029992;28;20132;-76
2022/09/09 01:56:38;;;;;;;6.20;5.60;;;;;;;14.05;100.00;100156.72;5033226;28;20034;-75
2022/09/09 01:59:18;;;;;;;5.93;5.32;;;;;;;14.07;99.70;100159.31;5050525;28;20504;-76
2022/09/09 02:02:13;;;;;;;6.43;5.82;;;;;;;14.03;99.72;100159.41;5022342;28;20065;-76
2022/09/09 02:05:02;;;;;;;5.70;5.20;;;;;;;14.03;99.64;100159.41;5032843;28;20030;-76
2022/09/09 02:07:47;;;;;;;6.00;5.47;;;;;;;14.01;99.62;100161.22;5039574;28;20557;-76
2022/09/09 02:10:33;;;;;;;7.45;5.68;;;;;;;14.02;99.46;100162.13;5035193;28;20408;-76
2022/09/09 02:13:18;;;;;;;6.32;5.72;;;;;;;14.03;99.76;100164.69;5031739;28;20025;-76
2022/09/09 02:16:00;;;;;;;8.57;6.72;;;;;;;14.04;99.03;100157.59;5039869;28;20411;-76
2022/09/09 02:18:35;;;;;;;6.05;5.45;;;;;;;14.02;99.37;100162.97;5050615;28;20493;-76
2022/09/09 02:21:02;;;;;;;6.30;5.70;;;;;;;14.05;99.22;100161.16;5036054;28;20052;-76
2022/09/09 02:23:31;;;;;;;6.22;5.63;;;;;;;14.06;98.77;100155.78;5041290;28;20123;-76
2022/09/09 02:25:58;;;;;;;6.40;5.80;;;;;;;14.04;99.16;100154.97;5038909;28;20021;-76
2022/09/09 02:28:27;;;;;;;6.22;5.63;;;;;;;14.07;98.70;100154.00;5039956;28;20063;-76
2022/09/09 02:30:54;;;;;;;5.80;5.30;;;;;;;14.06;98.62;100165.53;5037859;28;20064;-76
2022/09/09 02:33:29;;;;;;;7.47;5.60;;;;;;;14.04;98.69;100168.22;5038781;28;20037;-76
2022/09/09 02:36:01;;;;;;;7.07;5.60;;;;;;;14.00;98.41;100174.53;5041355;28;20040;-76
2022/09/09 02:38:29;;;;;;;7.40;5.35;;;;;;;13.92;98.56;100169.44;5022372;28;20021;-76
2022/09/09 02:41:07;;;;;;;6.80;6.15;;;;;;;13.96;98.61;100171.09;5042853;28;20041;-76
2022/09/09 02:43:34;;;;;;;6.07;5.50;;;;;;;13.96;98.86;100173.75;5037456;28;20037;-76
2022/09/09 02:46:39;;;;;;;5.82;5.18;;;;;;;13.90;99.01;100173.03;5045309;28;20403;-75
2022/09/09 02:49:16;;;;;;;6.35;5.75;;;;;;;13.94;98.46;100169.41;5041768;28;20030;-76
2022/09/09 02:52:00;;;;;;;6.85;5.57;;;;;;;13.90;98.91;100163.28;5046065;28;20112;-75
2022/09/09 02:54:37;;;;;;;7.45;5.60;;;;;;;13.89;98.85;100171.31;5042081;28;20079;-75
2022/09/09 02:57:18;;;;;;;9.90;5.85;;;;;;;13.87;98.69;100168.66;5040196;28;20030;-76
2022/09/09 02:59:48;;;;;;;6.57;5.90;;;;;;;13.89;98.53;100172.16;5038519;28;20065;-75
2022/09/09 03:02:13;;;;;;;7.03;6.28;;;;;;;13.86;98.46;100179.31;5045290;28;20029;-76
2022/09/09 03:04:44;;;;;;;7.32;5.82;;;;;;;13.85;98.01;100178.44;5043787;28;20120;-75
2022/09/09 03:07:11;;;;;;;6.03;5.40;;;;;;;13.86;97.90;100172.25;5041897;28;20033;-75
2022/09/09 03:09:36;;;;;;;5.95;5.35;;;;;;;13.81;98.15;100180.31;5044680;28;20032;-76
2022/09/09 03:12:04;;;;;;;6.72;6.05;;;;;;;13.78;98.42;100184.81;5041769;28;20380;-75
2022/09/09 03:14:30;;;;;;;6.95;5.75;;;;;;;13.74;98.23;100178.72;5043242;28;20036;-75
2022/09/09 03:17:00;;;;;;;10.90;6.10;;;;;;;13.70;98.39;100182.38;5027134;28;20402;-75
2022/09/09 03:19:27;;;;;;;6.03;5.53;;;;;;;13.66;98.71;100182.47;5041221;28;20064;-75
2022/09/09 03:21:53;;;;;;;5.28;4.78;;;;;;;13.56;98.50;100185.34;5045455;28;20033;-75
2022/09/09 03:24:19;;;;;;;9.55;6.40;;;;;;;13.52;99.32;100190.78;5025756;28;20084;-76
2022/09/09 03:26:45;;;;;;;6.20;5.60;;;;;;;13.45;99.64;100190.03;5043053;28;20037;-76
2022/09/09 03:29:13;;;;;;;5.93;4.85;;;;;;;13.34;100.00;100192.06;5043792;28;20090;-76
2022/09/09 03:31:40;;;;;;;6.07;5.20;;;;;;;13.25;100.00;100190.44;5040854;28;20068;-76
2022/09/09 03:34:06;;;;;;;6.28;5.55;;;;;;;13.21;100.00;100191.44;5044263;28;20060;-76
2022/09/09 03:36:33;;;;;;;8.63;6.55;;;;;;;13.14;100.00;100190.69;5042103;28;20120;-76
2022/09/09 03:39:00;;;;;;;6.28;5.65;;;;;;;13.07;100.00;100186.44;5042581;28;20119;-76
2022/09/09 03:41:28;;;;;;;9.23;5.38;;;;;;;13.01;100.00;100186.56;5043426;28;20411;-76
2022/09/09 03:43:54;;;;;;;7.00;6.28;;;;;;;12.93;100.00;100178.78;5040978;28;20030;-75
2022/09/09 03:46:23;;;;;;;5.30;4.80;;;;;;;12.88;100.00;100183.28;5043954;28;20047;-75
2022/09/09 03:48:50;;;;;;;13.82;5.65;;;;;;;12.81;100.00;100175.50;5042521;28;20029;-76
2022/09/09 03:51:16;;;;;;;6.60;5.30;;;;;;;12.73;100.00;100186.25;5043457;28;20033;-76
2022/09/09 03:53:42;;;;;;;6.53;5.93;;;;;;;12.65;100.00;100178.50;5041178;28;20519;-76
2022/09/09 03:56:09;;;;;;;6.63;6.00;;;;;;;12.55;100.00;100182.22;5044174;28;20036;-76
2022/09/09 03:58:35;;;;;;;7.95;5.40;;;;;;;12.47;100.00;100178.84;5037798;28;20438;-76
2022/09/09 04:01:08;;;;;;;5.57;5.18;;;;;;;12.47;100.00;100182.38;5044057;28;20033;-76
2022/09/09 04:03:34;;;;;;;6.80;5.22;;;;;;;12.45;100.00;100178.03;5038834;28;20044;-76
2022/09/09 04:06:02;;;;;;;7.18;6.47;;;;;;;12.37;100.00;100183.47;5040375;28;20026;-76
2022/09/09 04:08:32;;;;;;;8.50;7.20;;;;;;;12.39;100.00;100186.06;5043244;28;20078;-76
2022/09/09 04:11:02;;;;;;;7.07;5.80;;;;;;;12.38;100.00;100190.47;5042325;28;20029;-76
2022/09/09 04:13:28;;;;;;;5.95;5.45;;;;;;;12.33;100.00;100195.00;5041317;28;20021;-76
2022/09/09 04:15:59;;;;;;;5.60;5.10;;;;;;;12.26;100.00;100191.59;5040770;28;20040;-76
2022/09/09 04:18:25;;;;;;;8.55;5.95;;;;;;;12.19;100.00;100191.75;5040818;28;20083;-76
2022/09/09 04:20:52;;;;;;;6.15;5.50;;;;;;;12.15;100.00;100187.38;5038046;28;20034;-76
2022/09/09 04:23:21;;;;;;;6.20;5.13;;;;;;;12.12;100.00;100183.03;5020871;28;20033;-75
2022/09/09 04:25:48;;;;;;;5.45;4.95;;;;;;;12.10;100.00;100184.81;5039612;28;20491;-75
2022/09/09 04:28:14;;;;;;;7.75;5.45;;;;;;;12.11;100.00;100186.59;5038071;28;20059;-75
2022/09/09 04:30:40;;;;;;;8.10;5.18;;;;;;;12.10;100.00;100189.25;5036112;28;20037;-75
2022/09/09 04:33:07;;;;;;;6.22;5.25;;;;;;;12.11;100.00;100191.00;5038826;28;20043;-76
2022/09/09 04:35:33;;;;;;;6.60;5.35;;;;;;;12.12;100.00;100188.31;5038474;28;20029;-76
2022/09/09 04:37:59;;;;;;;6.25;5.75;;;;;;;12.05;100.00;100182.28;5037061;28;20035;-76
2022/09/09 04:40:25;;;;;;;5.47;4.97;;;;;;;12.04;100.00;100185.81;5038550;28;20738;-76
2022/09/09 04:42:51;;;;;;;5.45;5.03;;;;;;;12.01;100.00;100182.34;5039810;28;20045;-75
2022/09/09 04:45:17;;;;;;;6.93;5.15;;;;;;;12.00;100.00;100183.25;5028592;28;20758;-75
2022/09/09 04:47:42;;;;;;;6.30;5.80;;;;;;;12.01;100.00;100190.28;5033709;28;20030;-76
2022/09/09 04:50:08;;;;;;;6.30;5.70;;;;;;;12.02;100.00;100195.53;5032735;28;20025;-75
2022/09/09 04:52:35;;;;;;;7.45;6.25;;;;;;;12.10;100.00;100195.41;5030855;28;20114;-75
2022/09/09 04:55:01;;;;;;;6.30;5.75;;;;;;;12.18;100.00;100195.25;5031808;28;20029;-76
2022/09/09 04:57:28;;;;;;;6.00;5.50;;;;;;;12.10;100.00;100184.81;5039941;28;20108;-76
2022/09/09 04:59:54;;;;;;;5.97;5.35;;;;;;;12.06;100.00;100189.31;5031399;28;20484;-76
2022/09/09 05:02:19;;;;;;;8.43;5.80;;;;;;;12.09;100.00;100200.75;5040603;28;20029;-75
2022/09/09 05:04:45;;;;;;;9.10;5.78;;;;;;;12.10;100.00;100192.75;5027398;28;20404;-76
2022/09/09 05:07:10;;;;;;;6.45;5.95;;;;;;;12.07;100.00;100208.69;5038335;28;20029;-76
2022/09/09 05:09:35;;;;;;;6.18;5.68;;;;;;;12.15;100.00;100211.19;5040469;28;20410;-75
2022/09/09 05:12:02;;;;;;;5.95;5.40;;;;;;;12.21;100.00;100204.03;5037807;28;20495;-75
2022/09/09 05:14:31;;;;;;;6.07;5.47;;;;;;;12.24;100.00;100192.53;5038403;28;20036;-76
2022/09/09 05:16:58;;;;;;;6.80;6.10;;;;;;;12.33;100.00;100202.06;5040231;28;20036;-76
2022/09/09 05:19:24;;;;;;;7.85;5.47;;;;;;;12.38;100.00;100198.41;5036994;28;20037;-76
2022/09/09 05:21:51;;;;;;;6.53;5.50;;;;;;;12.47;100.00;100200.00;5042176;28;20041;-76
2022/09/09 05:24:22;;;;;;;6.38;5.78;;;;;;;12.55;100.00;100203.41;5034960;28;20561;-76
2022/09/09 05:26:50;;;;;;;6.47;5.95;;;;;;;12.68;100.00;100201.38;5038818;28;20036;-76
2022/09/09 05:29:18;;;;;;;7.40;6.03;;;;;;;12.79;100.00;100203.81;5037479;28;20029;-76
2022/09/09 05:31:44;;;;;;;7.22;6.25;;;;;;;12.87;100.00;100201.88;5032537;28;20062;-76
2022/09/09 05:34:13;;;;;;;8.57;5.28;;;;;;;12.91;100.00;100211.50;5028732;28;20037;-76
2022/09/09 05:36:39;;;;;;;6.90;5.97;;;;;;;12.97;100.00;100215.78;5030693;28;20496;-76
2022/09/09 05:39:05;;;;;;;6.50;5.82;;;;;;;13.05;100.00;100217.41;5012731;28;20131;-76
2022/09/09 05:41:31;;;;;;;8.07;5.97;;;;;;;13.11;100.00;100216.38;5025709;28;20068;-76
2022/09/09 05:44:00;;;;;;;6.68;5.97;;;;;;;13.20;100.00;100223.25;5029293;28;20033;-76
2022/09/09 05:46:26;;;;;;;6.65;5.90;;;;;;;13.29;100.00;100223.97;5030257;28;20033;-76
2022/09/09 05:48:53;;;;;;;5.70;5.20;;;;;;;13.35;100.00;100222.94;5032001;28;20025;-76
2022/09/09 05:51:27;;;;;;;6.53;5.78;;;;;;;13.52;100.00;100219.94;5041707;28;20036;-76
2022/09/09 05:53:58;;;;;;;8.43;7.15;;;;;;;13.70;100.00;100226.56;5035178;28;20709;-76
2022/09/09 05:56:26;;;;;;;10.25;7.90;;;;;;;13.90;100.00;100228.75;5040486;28;20072;-76
2022/09/09 05:58:53;;;;;;;10.85;7.63;;;;;;;14.12;100.00;100222.00;5039062;28;20056;-76
2022/09/09 06:01:22;;;;;;;7.20;6.53;;;;;;;14.34;100.00;100230.25;5019577;28;20045;-76
2022/09/09 06:03:49;;;;;;;7.18;6.57;;;;;;;14.48;100.00;100225.44;5040741;28;20035;-76
2022/09/09 06:06:17;;;;;;;6.93;6.43;;;;;;;14.60;100.00;100224.28;5040558;28;20035;-76
2022/09/09 06:08:45;;;;;;;7.13;6.43;;;;;;;14.73;100.00;100222.16;5035399;28;20833;-76
2022/09/09 06:11:25;;;;;;;7.53;6.82;;;;;;;14.99;100.00;100225.84;5030414;28;20086;-76
2022/09/09 06:13:54;;;;;;;7.85;7.25;;;;;;;15.18;99.23;100227.03;5029940;28;20541;-76
2022/09/09 06:16:25;;;;;;;6.88;6.28;;;;;;;15.39;98.90;100224.66;5018166;28;20088;-76
2022/09/09 06:18:51;;;;;;;7.53;6.82;;;;;;;15.58;97.73;100223.16;5037156;28;20123;-76
2022/09/09 06:21:21;;;;;;;7.80;7.13;;;;;;;15.82;97.07;100221.53;5024804;28;20025;-76
2022/09/09 06:23:48;;;;;;;8.65;7.90;;;;;;;16.03;96.29;100216.41;5041296;28;20029;-76
2022/09/09 06:26:15;;;;;;;9.70;7.50;;;;;;;16.23;95.56;100221.06;5036977;28;20152;-76
2022/09/09 06:28:42;;;;;;;8.90;8.10;;;;;;;16.44;94.64;100226.50;5050602;28;20037;-76
2022/09/09 06:31:10;;;;;;;7.88;7.15;;;;;;;16.65;94.06;100227.53;5039223;28;20526;-76
2022/09/09 06:33:41;;;;;;;8.63;7.88;;;;;;;16.72;90.97;100228.19;5034119;28;20496;-76
2022/09/09 06:36:12;;;;;;;8.68;6.57;;;;;;;16.85;88.92;100231.31;5037823;28;20385;-76
2022/09/09 06:38:38;;;;;;;8.48;7.68;;;;;;;16.96;88.51;100229.13;5036416;28;20029;-76
2022/09/09 06:41:05;;;;;;;8.85;7.95;;;;;;;17.13;88.45;100232.94;5037154;28;20037;-76
2022/09/09 06:43:32;;;;;;;16.98;9.75;;;;;;;17.24;85.57;100236.09;5041095;28;20431;-76
2022/09/09 06:46:01;;;;;;;16.27;7.93;;;;;;;17.40;86.42;100241.69;5037865;28;20400;-76
2022/09/09 06:48:27;;;;;;;9.40;7.97;;;;;;;17.57;86.30;100233.88;5033783;28;20029;-76
2022/09/09 06:51:02;;;;;;;21.83;7.88;;;;;;;17.67;85.37;100229.91;5042402;28;20479;-76
2022/09/09 06:53:28;;;;;;;10.32;7.72;;;;;;;17.79;84.55;100231.28;5034224;28;20044;-76
2022/09/09 06:55:54;;;;;;;7.93;7.22;;;;;;;17.86;84.82;100227.41;5040036;28;20033;-76
2022/09/09 06:58:19;;;;;;;8.27;7.47;;;;;;;17.98;84.40;100231.38;5031694;28;20029;-76
2022/09/09 07:00:45;;;;;;;7.45;6.72;;;;;;;18.14;83.59;100228.94;5039245;28;20529;-76
2022/09/09 07:03:10;;;;;;;9.65;8.27;;;;;;;18.27;82.42;100229.28;5040946;28;20040;-76
2022/09/09 07:05:36;;;;;;;16.48;8.18;;;;;;;18.38;81.70;100222.53;5036566;28;20036;-76
2022/09/09 07:08:02;;;;;;;7.65;6.93;;;;;;;18.48;81.06;100219.47;5031802;28;20029;-76
2022/09/09 07:10:28;;;;;;;11.10;7.47;;;;;;;18.64;80.18;100217.84;5037765;28;20124;-76
2022/09/09 07:12:54;;;;;;;7.63;6.97;;;;;;;18.73;78.51;100217.47;5039803;28;20403;-76
2022/09/09 07:15:23;;;;;;;7.82;7.18;;;;;;;18.80;74.97;100218.94;5039204;28;20029;-76
2022/09/09 07:17:48;;;;;;;9.02;6.95;;;;;;;18.82;73.53;100225.09;5038530;28;20120;-76
2022/09/09 07:20:14;;;;;;;8.57;7.68;;;;;;;18.82;73.64;100224.22;5041967;28;20072;-76
2022/09/09 07:22:40;;;;;;;8.63;7.72;;;;;;;18.91;73.41;100230.94;5041169;28;20503;-76
2022/09/09 07:25:07;;;;;;;8.52;7.20;;;;;;;19.00;72.10;100211.81;5038291;28;20068;-76
2022/09/09 07:27:34;;;;;;;7.88;7.03;;;;;;;19.10;72.88;100215.81;5042600;28;20029;-76
2022/09/09 07:29:59;;;;;;;7.35;6.85;;;;;;;19.25;71.97;100219.56;5042947;28;20170;-76
2022/09/09 07:32:30;;;;;;;8.63;7.72;;;;;;;19.35;71.50;100217.31;5041092;28;20037;-76
2022/09/09 07:34:55;;;;;;;7.97;7.45;;;;;;;19.42;68.96;100224.13;5021885;28;20249;-76
2022/09/09 07:37:21;;;;;;;8.52;7.82;;;;;;;19.62;67.15;100223.16;5042920;28;20033;-77
2022/09/09 07:39:47;;;;;;;9.15;7.88;;;;;;;19.79;68.63;100225.06;5039379;28;20514;-76
2022/09/09 07:42:13;;;;;;;8.13;7.45;;;;;;;19.86;67.83;100227.34;5039515;28;20045;-76
2022/09/09 07:44:39;;;;;;;7.43;6.82;;;;;;;19.93;68.67;100233.25;5034200;28;20044;-76
2022/09/09 07:47:09;;;;;;;8.05;7.25;;;;;;;20.03;67.38;100231.88;5040628;28;20549;-76
2022/09/09 07:49:39;;;;;;;7.78;7.25;;;;;;;20.13;68.20;100230.47;5044101;28;20033;-76
2022/09/09 07:52:06;;;;;;;9.25;7.18;;;;;;;20.27;68.73;100227.06;5043732;28;20083;-76
2022/09/09 07:54:32;;;;;;;8.38;7.53;;;;;;;20.27;67.90;100228.88;5043522;28;20036;-76
2022/09/09 07:56:59;;;;;;;7.22;6.63;;;;;;;20.20;68.42;100236.38;5040795;28;20033;-76
2022/09/09 07:59:27;;;;;;;7.82;7.22;;;;;;;20.08;67.35;100232.50;5042592;28;20033;-76
2022/09/09 08:01:54;;;;;;;9.02;8.23;;;;;;;20.32;68.29;100237.56;5027002;28;20037;-76
2022/09/09 08:04:22;;;;;;;8.45;7.40;;;;;;;20.53;66.32;100236.44;5025732;28;20021;-76
2022/09/09 08:06:54;;;;;;;9.10;8.18;;;;;;;20.72;67.69;100238.19;5040129;28;20029;-76
2022/09/09 08:09:24;;;;;;;7.95;7.35;;;;;;;20.89;65.94;100234.63;5040433;28;20120;-76
2022/09/09 08:11:50;;;;;;;9.68;8.77;;;;;;;20.93;65.14;100237.06;5038614;28;20396;-77
2022/09/09 08:14:16;;;;;;;8.70;8.00;;;;;;;20.75;64.63;100243.38;5042948;28;20032;-76
2022/09/09 08:16:45;;;;;;;8.40;7.57;;;;;;;20.85;66.41;100243.78;5040383;28;20034;-77
2022/09/09 08:19:15;;;;;;;8.55;7.93;;;;;;;20.89;66.60;100240.84;5042961;28;20451;-77
2022/09/09 08:21:41;;;;;;;12.55;8.13;;;;;;;20.85;67.16;100243.78;5058428;28;20489;-76
2022/09/09 08:24:10;;;;;;;7.63;6.95;;;;;;;20.71;66.27;100242.69;5032613;28;20025;-77
2022/09/09 08:26:38;;;;;;;14.15;9.80;;;;;;;20.62;66.25;100240.50;5038906;28;20040;-77
2022/09/09 08:29:13;;;;;;;20.80;10.13;;;;;;;20.72;68.08;100243.56;5038677;28;20512;-76
2022/09/09 08:31:44;;;;;;;16.73;9.10;;;;;;;20.64;68.23;100235.06;5039020;28;20167;-77
2022/09/09 08:34:10;;;;;;;13.20;8.57;;;;;;;20.65;68.11;100231.44;5047458;28;20104;-76
2022/09/09 08:36:40;;;;;;;11.38;8.85;;;;;;;20.66;65.35;100241.22;5036982;28;20028;-77
2022/09/09 08:39:07;;;;;;;8.18;7.35;;;;;;;20.76;67.19;100234.41;5035910;28;20029;-77
2022/09/09 08:42:00;;;;;;;7.85;7.15;;;;;;;20.74;66.95;100237.16;5038831;28;20491;-76
2022/09/09 08:44:54;;;;;;;8.10;7.40;;;;;;;20.70;65.97;100229.38;5050693;28;20515;-76
2022/09/09 08:48:01;;;;;;;8.80;8.20;;;;;;;20.84;65.69;100240.22;5046484;28;20036;-76
2022/09/09 08:50:35;;;;;;;8.88;8.18;;;;;;;21.18;66.56;100239.28;5048919;28;20036;-76
2022/09/09 08:53:22;;;;;;;9.95;8.75;;;;;;;21.38;64.94;100238.22;5039931;28;20029;-77
2022/09/09 08:55:58;;;;;;;9.52;8.75;;;;;;;21.49;63.49;100244.81;5036490;28;20041;-77
2022/09/09 08:58:48;;;;;;;9.23;8.57;;;;;;;21.41;63.08;100239.88;5038501;28;20048;-77
2022/09/09 09:01:22;;;;;;;9.35;8.75;;;;;;;21.44;63.71;100245.06;5041721;28;20434;-76
2022/09/09 09:04:04;;;;;;;10.32;9.50;;;;;;;21.43;63.03;100246.00;5039088;28;20025;-77
2022/09/09 09:06:39;;;;;;;10.75;9.85;;;;;;;21.38;63.00;100248.09;5042105;28;20032;-76
2022/09/09 09:09:30;;;;;;;9.43;8.73;;;;;;;21.25;62.94;100242.50;5037693;28;20033;-77
2022/09/09 09:12:02;;;;;;;10.50;9.73;;;;;;;21.17;64.68;100250.97;5021202;28;20492;-76
2022/09/09 09:14:35;;;;;;;8.82;8.05;;;;;;;20.96;66.33;100253.00;5042788;28;20029;-77
2022/09/09 09:17:12;;;;;;;9.67;8.80;;;;;;;20.78;68.16;100249.47;5021348;28;20033;-76
2022/09/09 09:19:41;;;;;;;9.15;8.35;;;;;;;20.55;68.59;100256.03;5039765;28;20287;-76
2022/09/09 09:22:22;;;;;;;11.30;8.68;;;;;;;20.47;70.81;100255.53;5035319;28;20460;-77
2022/09/09 09:24:59;;;;;;;8.00;7.28;;;;;;;20.42;70.04;100249.53;5039007;28;20500;-76
2022/09/09 09:27:26;;;;;;;9.15;8.23;;;;;;;20.28;71.34;100250.25;5022476;28;20036;-76
2022/09/09 09:29:56;;;;;;;8.15;7.43;;;;;;;20.19;71.52;100253.38;5036297;28;20025;-76
2022/09/09 09:32:22;;;;;;;9.20;8.60;;;;;;;19.93;70.97;100254.69;5038414;28;20032;-76
2022/09/09 09:34:51;;;;;;;11.88;7.70;;;;;;;20.00;71.10;100256.13;5036690;28;20037;-76
2022/09/09 09:37:28;;;;;;;9.27;7.28;;;;;;;19.97;71.66;100256.28;5023751;28;20029;-76
2022/09/09 09:39:53;;;;;;;8.93;8.25;;;;;;;19.88;72.96;100257.59;5037649;28;20032;-76
2022/09/09 09:42:19;;;;;;;9.60;8.68;;;;;;;19.71;70.48;100260.22;5040024;28;20032;-76
2022/09/09 09:44:47;;;;;;;7.68;6.97;;;;;;;19.69;70.72;100273.69;5027779;28;20404;-76
2022/09/09 09:47:21;;;;;;;8.20;7.55;;;;;;;19.55;71.41;100265.44;5010132;28;20040;-77
2022/09/09 09:50:19;;;;;;;8.15;7.55;;;;;;;19.42;71.05;100264.28;5034676;28;20033;-76
2022/09/09 09:52:55;;;;;;;7.43;6.80;;;;;;;19.45;72.51;100261.44;5042382;28;20032;-76
2022/09/09 09:55:22;;;;;;;8.43;7.72;;;;;;;19.61;72.30;100266.94;5056853;28;20106;-76
2022/09/09 09:57:48;;;;;;;8.30;7.68;;;;;;;19.76;71.38;100255.53;5038437;28;20034;-76
2022/09/09 10:00:16;;;;;;;9.20;8.50;;;;;;;19.97;71.23;100260.78;5041631;28;20116;-76
2022/09/09 10:02:46;;;;;;;9.57;8.57;;;;;;;20.04;70.82;100257.72;5039282;28;20039;-76
2022/09/09 10:05:29;;;;;;;8.73;7.93;;;;;;;20.14;71.15;100258.97;5038573;28;20037;-76
2022/09/09 10:08:05;;;;;;;7.60;6.88;;;;;;;20.26;70.81;100268.22;5026803;28;20228;-76
2022/09/09 10:10:53;;;;;;;8.80;7.35;;;;;;;20.30;70.57;100252.84;5039741;28;20186;-76
2022/09/09 10:13:32;;;;;;;11.80;7.72;;;;;;;20.43;69.26;100255.75;5034164;28;20104;-76
2022/09/09 10:16:09;;;;;;;8.35;7.60;;;;;;;20.65;69.68;100259.13;5039015;28;20037;-76
2022/09/09 10:18:42;;;;;;;7.82;7.32;;;;;;;20.69;69.40;100265.19;5039269;28;20045;-76
2022/09/09 10:21:37;;;;;;;7.45;6.85;;;;;;;20.74;68.00;100257.75;5041423;28;20049;-76
2022/09/09 10:24:25;;;;;;;9.30;8.38;;;;;;;20.85;69.07;100266.09;5034013;28;20029;-76
2022/09/09 10:26:54;;;;;;;8.50;7.90;;;;;;;21.20;68.07;100274.94;5037892;28;20116;-76
2022/09/09 10:29:40;;;;;;;11.27;10.43;;;;;;;21.69;66.98;100265.16;5042937;28;20062;-76
2022/09/09 10:32:20;;;;;;;8.52;7.82;;;;;;;21.75;64.66;100263.00;5039297;28;20037;-76
2022/09/09 10:34:54;;;;;;;9.23;8.32;;;;;;;21.98;63.50;100258.09;5036560;28;20488;-76
2022/09/09 10:37:52;;;;;;;10.13;9.48;;;;;;;22.06;62.86;100259.41;5037994;28;20049;-77
2022/09/09 10:40:31;;;;;;;10.57;9.88;;;;;;;22.29;59.94;100246.47;5020009;28;20555;-76
2022/09/09 10:43:12;;;;;;;9.93;9.32;;;;;;;22.65;59.33;100247.91;5039480;28;20037;-76
2022/09/09 10:45:49;;;;;;;9.80;9.00;;;;;;;22.95;57.64;100242.44;5034877;28;20037;-76
2022/09/09 10:48:30;;;;;;;8.23;7.72;;;;;;;23.13;57.80;100246.75;5032481;28;20041;-77
2022/09/09 10:51:14;;;;;;;8.20;7.60;;;;;;;22.92;54.95;100248.91;5043043;28;20041;-77
2022/09/09 10:54:13;;;;;;;15.07;14.25;;;;;;;22.46;55.45;100245.47;5039772;28;20049;-76
2022/09/09 10:56:40;;;;;;;7.35;6.75;;;;;;;22.47;57.59;100239.13;5035380;28;20379;-77
2022/09/09 10:59:13;;;;;;;6.75;6.10;;;;;;;22.53;57.93;100231.56;5038906;28;20034;-77
2022/09/09 11:01:47;;;;;;;8.20;7.55;;;;;;;22.56;57.08;100226.94;5042547;28;20041;-77
2022/09/09 11:04:26;;;;;;;7.85;7.00;;;;;;;22.68;57.47;100227.06;5038887;28;20030;-76
2022/09/09 11:06:55;;;;;;;13.63;12.68;;;;;;;22.73;56.77;100224.09;5042567;28;20045;-77
2022/09/09 11:09:25;;;;;;;8.07;7.35;;;;;;;22.86;58.26;100224.19;5037103;28;20418;-77
2022/09/09 11:11:54;;;;;;;17.38;16.15;;;;;;;22.74;56.95;100221.31;5045074;28;20484;-77
2022/09/09 11:14:32;;;;;;;11.15;10.35;;;;;;;22.62;57.47;100222.06;5044691;28;20409;-77
2022/09/09 11:17:01;;;;;;;12.43;11.50;;;;;;;22.70;58.23;100218.91;5041776;28;20052;-76
2022/09/09 11:19:38;;;;;;;10.25;9.27;;;;;;;22.71;57.34;100213.41;5044407;28;20033;-76
2022/09/09 11:22:14;;;;;;;7.85;6.88;;;;;;;22.78;58.83;100207.66;5047824;28;20090;-76
2022/09/09 11:25:00;;;;;;;7.38;6.72;;;;;;;22.75;58.84;100201.50;5036168;28;20033;-77
2022/09/09 11:27:56;;;;;;;7.88;7.15;;;;;;;22.90;58.59;100205.09;5038683;28;20041;-76
2022/09/09 11:30:27;;;;;;;13.25;12.27;;;;;;;23.00;56.74;100210.75;5042040;28;20091;-77
2022/09/09 11:33:16;;;;;;;9.13;8.32;;;;;;;23.26;55.74;100205.56;5045495;28;20123;-76
2022/09/09 11:36:22;;;;;;;9.68;8.68;;;;;;;23.65;54.20;100202.09;5045676;28;20048;-76
2022/09/09 11:38:51;;;;;;;10.30;9.05;;;;;;;24.04;54.89;100195.91;5042773;28;20049;-76
2022/09/09 11:41:20;;;;;;;19.30;17.90;;;;;;;24.27;52.39;100201.59;5039841;28;20037;-76
2022/09/09 11:43:49;;;;;;;11.80;10.90;;;;;;;24.52;52.96;100194.53;5041615;28;20095;-77
2022/09/09 11:46:18;;;;;;;13.98;10.90;;;;;;;24.87;52.21;100190.22;5042349;28;20032;-76